sensor_id;sensor_type;location;lat;lon;timestamp;pressure;altitude;pressure_sealevel;temperature;humidity
26531;BME280;14201;43.188;24.160;2023-04-01T00:00:19;98602.06;;;10.85;69.38
26531;BME280;14201;43.188;24.160;2023-04-01T00:02:45;98602.94;;;10.84;69.48
26531;BME280;14201;43.188;24.160;2023-04-01T00:05:11;98603.13;;;10.92;70.05
26531;BME280;14201;43.188;24.160;2023-04-01T00:07:38;98601.28;;;10.89;70.03
26531;BME280;14201;43.188;24.160;2023-04-01T00:10:05;98596.25;;;10.95;69.52
26531;BME280;14201;43.188;24.160;2023-04-01T00:12:30;98601.53;;;10.98;69.55
26531;BME280;14201;43.188;24.160;2023-04-01T00:14:56;98596.22;;;10.94;69.91
26531;BME280;14201;43.188;24.160;2023-04-01T00:17:22;98591.31;;;11.08;70.48
26531;BME280;14201;43.188;24.160;2023-04-01T00:19:47;98599.06;;;11.04;70.02
26531;BME280;14201;43.188;24.160;2023-04-01T00:22:13;98600.69;;;11.01;70.46
26531;BME280;14201;43.188;24.160;2023-04-01T00:24:39;98585.97;;;11.03;69.85
26531;BME280;14201;43.188;24.160;2023-04-01T00:27:05;98583.47;;;11.06;69.93
26531;BME280;14201;43.188;24.160;2023-04-01T00:29:30;98580.19;;;11.15;69.49
26531;BME280;14201;43.188;24.160;2023-04-01T00:31:58;98581.06;;;11.15;69.79
26531;BME280;14201;43.188;24.160;2023-04-01T00:34:23;98559.97;;;11.04;70.51
26531;BME280;14201;43.188;24.160;2023-04-01T00:36:52;98577.41;;;11.07;70.03
26531;BME280;14201;43.188;24.160;2023-04-01T00:39:21;98579.34;;;11.16;70.02
26531;BME280;14201;43.188;24.160;2023-04-01T00:41:48;98572.47;;;11.19;70.04
26531;BME280;14201;43.188;24.160;2023-04-01T00:44:25;98576.94;;;11.25;69.23
26531;BME280;14201;43.188;24.160;2023-04-01T00:46:51;98567.22;;;11.18;70.07
26531;BME280;14201;43.188;24.160;2023-04-01T00:49:22;98573.53;;;11.28;70.08
26531;BME280;14201;43.188;24.160;2023-04-01T00:51:52;98570.13;;;11.32;69.82
26531;BME280;14201;43.188;24.160;2023-04-01T00:54:20;98573.47;;;11.25;70.11
26531;BME280;14201;43.188;24.160;2023-04-01T00:56:56;98567.56;;;11.33;70.58
26531;BME280;14201;43.188;24.160;2023-04-01T00:59:30;98557.22;;;11.38;70.31
26531;BME280;14201;43.188;24.160;2023-04-01T01:01:57;98557.13;;;11.33;70.08
26531;BME280;14201;43.188;24.160;2023-04-01T01:09:42;98555.06;;;11.18;71.02
26531;BME280;14201;43.188;24.160;2023-04-01T01:12:19;98548.88;;;11.13;71.40
26531;BME280;14201;43.188;24.160;2023-04-01T01:36:57;98518.06;;;11.35;70.30
26531;BME280;14201;43.188;24.160;2023-04-01T01:39:25;98513.97;;;11.46;70.61
26531;BME280;14201;43.188;24.160;2023-04-01T01:41:55;98512.91;;;11.38;70.25
26531;BME280;14201;43.188;24.160;2023-04-01T01:44:24;98498.97;;;11.34;71.27
26531;BME280;14201;43.188;24.160;2023-04-01T01:46:51;98502.56;;;11.41;70.79
26531;BME280;14201;43.188;24.160;2023-04-01T01:49:18;98498.22;;;11.40;71.20
26531;BME280;14201;43.188;24.160;2023-04-01T01:51:44;98503.56;;;11.48;71.81
26531;BME280;14201;43.188;24.160;2023-04-01T01:54:14;98500.81;;;11.40;71.85
26531;BME280;14201;43.188;24.160;2023-04-01T01:56:42;98502.75;;;11.50;71.49
26531;BME280;14201;43.188;24.160;2023-04-01T01:59:11;98499.06;;;11.40;71.76
26531;BME280;14201;43.188;24.160;2023-04-01T02:01:39;98489.75;;;11.52;71.92
26531;BME280;14201;43.188;24.160;2023-04-01T02:04:08;98500.38;;;11.62;72.38
26531;BME280;14201;43.188;24.160;2023-04-01T02:06:39;98481.00;;;11.50;71.23
26531;BME280;14201;43.188;24.160;2023-04-01T02:09:08;98486.47;;;11.62;71.01
26531;BME280;14201;43.188;24.160;2023-04-01T02:11:57;98495.75;;;11.48;71.79
26531;BME280;14201;43.188;24.160;2023-04-01T02:14:35;98494.69;;;11.39;71.22
26531;BME280;14201;43.188;24.160;2023-04-01T02:17:17;98491.38;;;11.47;71.28
26531;BME280;14201;43.188;24.160;2023-04-01T02:19:52;98493.16;;;11.49;71.75
26531;BME280;14201;43.188;24.160;2023-04-01T02:22:22;98474.78;;;11.43;71.99
26531;BME280;14201;43.188;24.160;2023-04-01T02:24:51;98483.53;;;11.47;72.06
26531;BME280;14201;43.188;24.160;2023-04-01T02:27:18;98468.81;;;11.49;70.51
26531;BME280;14201;43.188;24.160;2023-04-01T02:29:44;98463.66;;;11.52;70.78
26531;BME280;14201;43.188;24.160;2023-04-01T02:32:12;98453.53;;;11.67;70.13
26531;BME280;14201;43.188;24.160;2023-04-01T02:34:39;98455.22;;;11.65;70.30
26531;BME280;14201;43.188;24.160;2023-04-01T02:37:04;98450.06;;;11.68;69.90
26531;BME280;14201;43.188;24.160;2023-04-01T02:39:30;98450.13;;;11.71;70.06
26531;BME280;14201;43.188;24.160;2023-04-01T02:41:56;98454.56;;;11.78;69.11
26531;BME280;14201;43.188;24.160;2023-04-01T02:44:21;98454.72;;;11.86;69.49
26531;BME280;14201;43.188;24.160;2023-04-01T02:46:47;98445.34;;;11.96;69.83
26531;BME280;14201;43.188;24.160;2023-04-01T02:49:13;98445.41;;;11.99;70.56
26531;BME280;14201;43.188;24.160;2023-04-01T02:51:38;98445.31;;;11.93;69.72
26531;BME280;14201;43.188;24.160;2023-04-01T02:54:04;98445.31;;;11.93;70.98
26531;BME280;14201;43.188;24.160;2023-04-01T02:56:29;98452.28;;;11.94;70.84
26531;BME280;14201;43.188;24.160;2023-04-01T02:58:56;98448.75;;;11.92;71.22
26531;BME280;14201;43.188;24.160;2023-04-01T03:01:22;98433.28;;;12.01;71.22
26531;BME280;14201;43.188;24.160;2023-04-01T03:03:47;98440.19;;;11.99;69.58
26531;BME280;14201;43.188;24.160;2023-04-01T03:06:15;98440.13;;;11.96;69.11
26531;BME280;14201;43.188;24.160;2023-04-01T03:08:41;98431.34;;;11.89;69.39
26531;BME280;14201;43.188;24.160;2023-04-01T03:11:07;98446.16;;;11.92;69.33
26531;BME280;14201;43.188;24.160;2023-04-01T03:13:32;98441.03;;;11.96;68.77
26531;BME280;14201;43.188;24.160;2023-04-01T03:15:58;98436.75;;;12.00;68.11
26531;BME280;14201;43.188;24.160;2023-04-01T03:18:24;98431.56;;;12.03;69.28
26531;BME280;14201;43.188;24.160;2023-04-01T03:20:49;98436.00;;;12.09;69.18
26531;BME280;14201;43.188;24.160;2023-04-01T03:23:15;98444.06;;;12.23;68.47
26531;BME280;14201;43.188;24.160;2023-04-01T03:25:42;98438.09;;;12.30;70.49
26531;BME280;14201;43.188;24.160;2023-04-01T03:28:08;98434.53;;;12.25;68.80
26531;BME280;14201;43.188;24.160;2023-04-01T03:30:34;98437.78;;;12.10;69.28
26531;BME280;14201;43.188;24.160;2023-04-01T03:33:00;98442.81;;;11.99;69.75
26531;BME280;14201;43.188;24.160;2023-04-01T03:35:26;98443.66;;;11.98;69.46
26531;BME280;14201;43.188;24.160;2023-04-01T03:37:53;98450.03;;;12.14;67.33
26531;BME280;14201;43.188;24.160;2023-04-01T03:40:19;98446.38;;;12.04;67.60
26531;BME280;14201;43.188;24.160;2023-04-01T03:42:45;98449.09;;;12.10;68.02
26531;BME280;14201;43.188;24.160;2023-04-01T03:45:11;98442.34;;;12.25;67.92
26531;BME280;14201;43.188;24.160;2023-04-01T03:47:38;98457.19;;;12.26;68.36
26531;BME280;14201;43.188;24.160;2023-04-01T03:50:05;98453.63;;;12.22;69.27
26531;BME280;14201;43.188;24.160;2023-04-01T03:52:31;98452.63;;;12.15;68.81
26531;BME280;14201;43.188;24.160;2023-04-01T03:54:57;98451.03;;;12.22;67.87
26531;BME280;14201;43.188;24.160;2023-04-01T03:57:23;98460.59;;;12.21;66.89
26531;BME280;14201;43.188;24.160;2023-04-01T03:59:48;98453.56;;;12.17;68.04
26531;BME280;14201;43.188;24.160;2023-04-01T04:02:14;98459.81;;;12.29;69.59
26531;BME280;14201;43.188;24.160;2023-04-01T04:04:39;98466.91;;;12.36;67.30
26531;BME280;14201;43.188;24.160;2023-04-01T04:07:06;98464.59;;;12.54;63.21
26531;BME280;14201;43.188;24.160;2023-04-01T04:09:32;98465.94;;;12.87;61.06
26531;BME280;14201;43.188;24.160;2023-04-01T04:11:59;98464.53;;;13.14;60.40
26531;BME280;14201;43.188;24.160;2023-04-01T04:14:25;98465.09;;;13.55;57.47
26531;BME280;14201;43.188;24.160;2023-04-01T04:16:51;98469.69;;;13.79;56.93
26531;BME280;14201;43.188;24.160;2023-04-01T04:19:16;98470.97;;;14.25;53.90
26531;BME280;14201;43.188;24.160;2023-04-01T04:21:42;98464.25;;;14.54;52.46
26531;BME280;14201;43.188;24.160;2023-04-01T04:24:08;98478.31;;;14.64;53.14
26531;BME280;14201;43.188;24.160;2023-04-01T04:26:33;98451.22;;;14.62;52.82
26531;BME280;14201;43.188;24.160;2023-04-01T04:29:00;98474.88;;;14.73;53.13
26531;BME280;14201;43.188;24.160;2023-04-01T04:31:26;98479.25;;;14.77;53.42
26531;BME280;14201;43.188;24.160;2023-04-01T04:33:52;98469.63;;;14.73;55.22
26531;BME280;14201;43.188;24.160;2023-04-01T04:36:19;98470.31;;;14.50;55.97
26531;BME280;14201;43.188;24.160;2023-04-01T04:38:45;98465.84;;;14.35;57.83
26531;BME280;14201;43.188;24.160;2023-04-01T04:41:16;98471.06;;;14.31;58.55
26531;BME280;14201;43.188;24.160;2023-04-01T04:43:49;98482.41;;;14.31;60.08
26531;BME280;14201;43.188;24.160;2023-04-01T04:46:15;98476.16;;;14.15;61.69
26531;BME280;14201;43.188;24.160;2023-04-01T04:48:41;98474.34;;;14.10;63.70
26531;BME280;14201;43.188;24.160;2023-04-01T04:51:13;98451.31;;;13.73;65.42
26531;BME280;14201;43.188;24.160;2023-04-01T04:53:39;98473.94;;;13.68;67.85
26531;BME280;14201;43.188;24.160;2023-04-01T04:56:05;98472.28;;;13.76;68.24
26531;BME280;14201;43.188;24.160;2023-04-01T04:58:31;98469.34;;;13.49;70.02
26531;BME280;14201;43.188;24.160;2023-04-01T05:00:57;98471.97;;;13.49;72.40
26531;BME280;14201;43.188;24.160;2023-04-01T05:03:22;98451.94;;;13.49;71.93
26531;BME280;14201;43.188;24.160;2023-04-01T05:05:53;98451.03;;;13.46;72.60
26531;BME280;14201;43.188;24.160;2023-04-01T05:08:19;98456.84;;;13.28;74.11
26531;BME280;14201;43.188;24.160;2023-04-01T05:10:45;98447.28;;;13.27;74.99
26531;BME280;14201;43.188;24.160;2023-04-01T05:13:11;98432.28;;;13.13;75.79
26531;BME280;14201;43.188;24.160;2023-04-01T05:15:37;98435.94;;;13.28;74.47
26531;BME280;14201;43.188;24.160;2023-04-01T05:18:03;98428.28;;;13.40;73.04
26531;BME280;14201;43.188;24.160;2023-04-01T05:20:28;98430.09;;;13.46;72.84
26531;BME280;14201;43.188;24.160;2023-04-01T05:22:58;98429.22;;;13.44;73.93
26531;BME280;14201;43.188;24.160;2023-04-01T05:25:24;98429.28;;;13.53;72.42
26531;BME280;14201;43.188;24.160;2023-04-01T05:27:50;98431.06;;;13.57;73.21
26531;BME280;14201;43.188;24.160;2023-04-01T05:30:16;98419.84;;;13.67;71.33
26531;BME280;14201;43.188;24.160;2023-04-01T05:32:42;98408.50;;;13.68;71.88
26531;BME280;14201;43.188;24.160;2023-04-01T05:35:09;98390.25;;;13.71;72.86
26531;BME280;14201;43.188;24.160;2023-04-01T05:37:35;98389.38;;;13.74;73.33
26531;BME280;14201;43.188;24.160;2023-04-01T05:40:01;98385.16;;;13.87;72.68
26531;BME280;14201;43.188;24.160;2023-04-01T05:42:27;98372.72;;;13.64;73.47
26531;BME280;14201;43.188;24.160;2023-04-01T05:44:52;98368.63;;;13.94;74.66
26531;BME280;14201;43.188;24.160;2023-04-01T05:47:18;98369.53;;;13.96;74.22
26531;BME280;14201;43.188;24.160;2023-04-01T05:49:43;98353.69;;;13.82;73.50
26531;BME280;14201;43.188;24.160;2023-04-01T05:52:09;98357.25;;;13.92;74.40
26531;BME280;14201;43.188;24.160;2023-04-01T05:54:35;98350.28;;;13.92;73.85
26531;BME280;14201;43.188;24.160;2023-04-01T05:57:01;98361.66;;;13.97;73.51
26531;BME280;14201;43.188;24.160;2023-04-01T05:59:26;98355.53;;;13.94;72.97
26531;BME280;14201;43.188;24.160;2023-04-01T06:01:52;98356.41;;;13.94;73.03
26531;BME280;14201;43.188;24.160;2023-04-01T06:04:18;98352.81;;;13.82;74.25
26531;BME280;14201;43.188;24.160;2023-04-01T06:06:44;98350.22;;;13.83;74.58
26531;BME280;14201;43.188;24.160;2023-04-01T06:09:15;98345.91;;;13.88;73.62
26531;BME280;14201;43.188;24.160;2023-04-01T06:15:06;98354.59;;;13.86;74.04
26531;BME280;14201;43.188;24.160;2023-04-01T06:22:49;98345.13;;;14.03;72.88
26531;BME280;14201;43.188;24.160;2023-04-01T06:37:15;98331.66;;;14.81;69.58
26531;BME280;14201;43.188;24.160;2023-04-01T06:42:45;98329.06;;;14.89;70.40
26531;BME280;14201;43.188;24.160;2023-04-01T06:53:47;98307.13;;;14.74;71.58
26531;BME280;14201;43.188;24.160;2023-04-01T06:56:21;98308.06;;;14.81;72.44
26531;BME280;14201;43.188;24.160;2023-04-01T06:58:53;98316.84;;;14.97;69.52
26531;BME280;14201;43.188;24.160;2023-04-01T07:01:25;98328.09;;;14.68;74.66
26531;BME280;14201;43.188;24.160;2023-04-01T07:04:40;98328.13;;;14.79;74.75
26531;BME280;14201;43.188;24.160;2023-04-01T07:07:04;98330.72;;;14.71;73.93
26531;BME280;14201;43.188;24.160;2023-04-01T07:09:43;98337.56;;;14.49;74.58
26531;BME280;14201;43.188;24.160;2023-04-01T07:12:44;98329.84;;;14.71;73.86
26531;BME280;14201;43.188;24.160;2023-04-01T07:15:19;98336.00;;;14.77;73.23
26531;BME280;14201;43.188;24.160;2023-04-01T07:17:47;98333.22;;;14.53;74.85
26531;BME280;14201;43.188;24.160;2023-04-01T07:20:31;98319.41;;;14.83;75.30
26531;BME280;14201;43.188;24.160;2023-04-01T07:22:59;98320.31;;;14.85;75.18
26531;BME280;14201;43.188;24.160;2023-04-01T07:25:38;98328.19;;;14.98;73.58
26531;BME280;14201;43.188;24.160;2023-04-01T07:28:15;98321.22;;;15.00;74.07
26531;BME280;14201;43.188;24.160;2023-04-01T07:30:52;98324.75;;;15.06;73.93
26531;BME280;14201;43.188;24.160;2023-04-01T07:33:30;98320.38;;;15.13;73.43
26531;BME280;14201;43.188;24.160;2023-04-01T07:36:06;98316.88;;;15.17;71.45
26531;BME280;14201;43.188;24.160;2023-04-01T07:38:55;98305.53;;;15.24;70.94
26531;BME280;14201;43.188;24.160;2023-04-01T07:41:41;98310.81;;;15.53;71.12
26531;BME280;14201;43.188;24.160;2023-04-01T07:52:49;98309.94;;;15.48;73.23
26531;BME280;14201;43.188;24.160;2023-04-01T07:55:24;98304.69;;;15.34;75.84
26531;BME280;14201;43.188;24.160;2023-04-01T08:06:00;98312.59;;;15.53;74.21
26531;BME280;14201;43.188;24.160;2023-04-01T08:11:31;98310.81;;;15.64;74.37
26531;BME280;14201;43.188;24.160;2023-04-01T08:22:21;98312.59;;;15.93;73.19
26531;BME280;14201;43.188;24.160;2023-04-01T08:24:51;98331.84;;;15.93;73.03
26531;BME280;14201;43.188;24.160;2023-04-01T08:27:41;98320.47;;;15.96;73.69
26531;BME280;14201;43.188;24.160;2023-04-01T08:30:19;98331.84;;;15.98;73.22
26531;BME280;14201;43.188;24.160;2023-04-01T08:32:58;98319.59;;;15.97;73.02
26531;BME280;14201;43.188;24.160;2023-04-01T08:35:29;98303.78;;;16.19;70.81
26531;BME280;14201;43.188;24.160;2023-04-01T08:38:01;98307.28;;;16.24;69.37
26531;BME280;14201;43.188;24.160;2023-04-01T08:40:56;98306.41;;;16.26;69.96
26531;BME280;14201;43.188;24.160;2023-04-01T08:52:16;98280.94;;;16.58;69.01
26531;BME280;14201;43.188;24.160;2023-04-01T08:58:01;98279.16;;;16.53;69.22
26531;BME280;14201;43.188;24.160;2023-04-01T09:00:56;98271.28;;;16.57;69.30
26531;BME280;14201;43.188;24.160;2023-04-01T09:03:36;98255.47;;;16.61;69.57
26531;BME280;14201;43.188;24.160;2023-04-01T09:11:42;98249.09;;;17.15;67.95
26531;BME280;14201;43.188;24.160;2023-04-01T09:26:12;98235.25;;;17.96;56.79
26531;BME280;14201;43.188;24.160;2023-04-01T09:31:49;98227.72;;;18.43;57.73
26531;BME280;14201;43.188;24.160;2023-04-01T09:37:18;98223.16;;;18.56;56.82
26531;BME280;14201;43.188;24.160;2023-04-01T09:39:52;98222.97;;;18.71;56.99
26531;BME280;14201;43.188;24.160;2023-04-01T09:48:11;98225.03;;;19.13;51.79
26531;BME280;14201;43.188;24.160;2023-04-01T10:16:33;98198.72;;;20.95;52.93
26531;BME280;14201;43.188;24.160;2023-04-01T10:24:54;98191.16;;;20.78;52.44
26531;BME280;14201;43.188;24.160;2023-04-01T10:33:38;98173.44;;;20.81;54.22
26531;BME280;14201;43.188;24.160;2023-04-01T10:48:03;98147.63;;;20.51;53.37
26531;BME280;14201;43.188;24.160;2023-04-01T10:51:04;98138.94;;;20.45;53.23
26531;BME280;14201;43.188;24.160;2023-04-01T11:13:30;98134.00;;;19.85;52.33
26531;BME280;14201;43.188;24.160;2023-04-01T11:21:55;98131.19;;;19.94;52.14
26531;BME280;14201;43.188;24.160;2023-04-01T11:27:16;98137.34;;;19.95;54.73
26531;BME280;14201;43.188;24.160;2023-04-01T11:35:35;98127.78;;;20.31;53.75
26531;BME280;14201;43.188;24.160;2023-04-01T11:46:25;98109.88;;;20.44;51.21
26531;BME280;14201;43.188;24.160;2023-04-01T11:54:54;98099.28;;;20.05;51.65
26531;BME280;14201;43.188;24.160;2023-04-01T11:57:42;98078.66;;;19.79;52.59
26531;BME280;14201;43.188;24.160;2023-04-01T12:06:02;98103.28;;;19.81;52.63
26531;BME280;14201;43.188;24.160;2023-04-01T12:08:40;98122.88;;;19.67;51.76
26531;BME280;14201;43.188;24.160;2023-04-01T12:13:53;98125.78;;;19.54;52.43
26531;BME280;14201;43.188;24.160;2023-04-01T12:16:37;98137.84;;;19.17;52.51
26531;BME280;14201;43.188;24.160;2023-04-01T12:19:29;98142.47;;;19.06;52.81
26531;BME280;14201;43.188;24.160;2023-04-01T12:24:49;98167.41;;;18.83;54.21
26531;BME280;14201;43.188;24.160;2023-04-01T12:27:41;98180.69;;;18.77;54.86
26531;BME280;14201;43.188;24.160;2023-04-01T12:30:13;98183.53;;;18.60;55.80
26531;BME280;14201;43.188;24.160;2023-04-01T12:42:10;98197.75;;;18.48;57.78
26531;BME280;14201;43.188;24.160;2023-04-01T12:44:32;98215.59;;;18.28;59.02
26531;BME280;14201;43.188;24.160;2023-04-01T13:00:43;98299.47;;;17.81;65.39
26531;BME280;14201;43.188;24.160;2023-04-01T13:14:32;98378.78;;;17.37;72.04
26531;BME280;14201;43.188;24.160;2023-04-01T13:25:10;98270.59;;;15.85;78.74
26531;BME280;14201;43.188;24.160;2023-04-01T13:27:44;98302.09;;;15.93;79.03
26531;BME280;14201;43.188;24.160;2023-04-01T13:35:41;98322.19;;;16.23;82.62
26531;BME280;14201;43.188;24.160;2023-04-01T13:41:12;98322.13;;;16.54;83.32
26531;BME280;14201;43.188;24.160;2023-04-01T13:43:52;98315.09;;;16.53;81.88
26531;BME280;14201;43.188;24.160;2023-04-01T13:55:15;98267.09;;;15.91;81.44
26531;BME280;14201;43.188;24.160;2023-04-01T14:03:30;98256.59;;;15.54;82.64
26531;BME280;14201;43.188;24.160;2023-04-01T14:06:12;98246.09;;;15.42;83.96
26531;BME280;14201;43.188;24.160;2023-04-01T14:11:50;98245.22;;;15.47;82.65
26531;BME280;14201;43.188;24.160;2023-04-01T14:14:48;98229.47;;;15.32;82.78
26531;BME280;14201;43.188;24.160;2023-04-01T14:17:41;98232.09;;;15.27;84.08
26531;BME280;14201;43.188;24.160;2023-04-01T14:26:19;98196.19;;;14.85;90.26
26531;BME280;14201;43.188;24.160;2023-04-01T14:29:08;98177.84;;;14.71;90.88
26531;BME280;14201;43.188;24.160;2023-04-01T14:32:02;98188.31;;;14.77;92.79
26531;BME280;14201;43.188;24.160;2023-04-01T14:46:17;98141.16;;;15.29;87.76
26531;BME280;14201;43.188;24.160;2023-04-01T14:49:01;98126.31;;;15.14;86.99
26531;BME280;14201;43.188;24.160;2023-04-01T14:51:34;98125.44;;;15.08;91.29
26531;BME280;14201;43.188;24.160;2023-04-01T14:54:14;98123.69;;;15.13;87.98
26531;BME280;14201;43.188;24.160;2023-04-01T14:56:50;98105.31;;;15.27;91.25
26531;BME280;14201;43.188;24.160;2023-04-01T15:02:01;98112.34;;;14.97;91.32
26531;BME280;14201;43.188;24.160;2023-04-01T15:07:26;98121.94;;;15.04;90.19
26531;BME280;14201;43.188;24.160;2023-04-01T15:12:45;98112.31;;;14.92;90.43
26531;BME280;14201;43.188;24.160;2023-04-01T15:25:43;98112.31;;;14.65;90.90
26531;BME280;14201;43.188;24.160;2023-04-01T15:37:09;98110.53;;;14.48;90.33
26531;BME280;14201;43.188;24.160;2023-04-01T15:39:46;98107.88;;;14.42;89.94
26531;BME280;14201;43.188;24.160;2023-04-01T15:45:04;98106.16;;;14.53;91.71
26531;BME280;14201;43.188;24.160;2023-04-01T15:47:39;98106.19;;;14.63;90.48
26531;BME280;14201;43.188;24.160;2023-04-01T15:50:37;98114.06;;;14.63;89.02
26531;BME280;14201;43.188;24.160;2023-04-01T15:53:29;98104.44;;;14.71;89.14
26531;BME280;14201;43.188;24.160;2023-04-01T15:58:48;98100.09;;;14.67;88.25
26531;BME280;14201;43.188;24.160;2023-04-01T16:01:23;98111.47;;;14.80;87.18
26531;BME280;14201;43.188;24.160;2023-04-01T16:04:55;98110.59;;;14.77;87.22
26531;BME280;14201;43.188;24.160;2023-04-01T16:10:16;98122.81;;;14.92;86.72
26531;BME280;14201;43.188;24.160;2023-04-01T16:16:00;98143.81;;;15.06;86.03
26531;BME280;14201;43.188;24.160;2023-04-01T16:19:05;98147.28;;;15.21;85.70
26531;BME280;14201;43.188;24.160;2023-04-01T16:21:35;98150.78;;;15.23;85.12
26531;BME280;14201;43.188;24.160;2023-04-01T16:24:17;98161.28;;;15.23;85.19
26531;BME280;14201;43.188;24.160;2023-04-01T16:29:48;98239.06;;;14.98;85.12
26531;BME280;14201;43.188;24.160;2023-04-01T16:37:53;98327.81;;;14.27;75.44
26531;BME280;14201;43.188;24.160;2023-04-01T16:40:42;98316.44;;;14.20;77.23
26531;BME280;14201;43.188;24.160;2023-04-01T16:43:21;98311.09;;;14.05;78.67
26531;BME280;14201;43.188;24.160;2023-04-01T16:46:17;98331.97;;;13.95;79.25
26531;BME280;14201;43.188;24.160;2023-04-01T16:49:03;98321.56;;;14.02;79.98
26531;BME280;14201;43.188;24.160;2023-04-01T16:54:55;98364.25;;;13.93;80.40
26531;BME280;14201;43.188;24.160;2023-04-01T16:57:37;98359.00;;;13.88;80.43
26531;BME280;14201;43.188;24.160;2023-04-01T17:00:28;98365.13;;;13.93;80.94
26531;BME280;14201;43.188;24.160;2023-04-01T17:03:04;98365.91;;;13.82;81.78
26531;BME280;14201;43.188;24.160;2023-04-01T17:08:47;98355.59;;;14.03;80.47
26531;BME280;14201;43.188;24.160;2023-04-01T17:11:19;98352.00;;;13.92;82.15
26531;BME280;14201;43.188;24.160;2023-04-01T17:13:57;98348.47;;;13.81;82.87
26531;BME280;14201;43.188;24.160;2023-04-01T17:19:19;98323.19;;;13.83;80.94
26531;BME280;14201;43.188;24.160;2023-04-01T17:22:04;98315.97;;;13.55;83.17
26531;BME280;14201;43.188;24.160;2023-04-01T17:27:50;98324.50;;;13.37;87.63
26531;BME280;14201;43.188;24.160;2023-04-01T17:33:03;98313.56;;;12.93;85.80
26531;BME280;14201;43.188;24.160;2023-04-01T17:35:57;98334.22;;;12.73;85.49
26531;BME280;14201;43.188;24.160;2023-04-01T17:38:54;98371.50;;;12.59;90.03
26531;BME280;14201;43.188;24.160;2023-04-01T17:52:08;98410.66;;;13.27;87.08
26531;BME280;14201;43.188;24.160;2023-04-01T18:00:19;98427.47;;;13.44;82.49
26531;BME280;14201;43.188;24.160;2023-04-01T18:03:33;98444.00;;;13.42;81.90
26531;BME280;14201;43.188;24.160;2023-04-01T18:17:31;98450.63;;;13.18;82.18
26531;BME280;14201;43.188;24.160;2023-04-01T18:20:25;98432.16;;;13.03;84.45
26531;BME280;14201;43.188;24.160;2023-04-01T18:22:59;98447.13;;;13.16;83.74
26531;BME280;14201;43.188;24.160;2023-04-01T18:25:37;98448.91;;;13.20;82.95
26531;BME280;14201;43.188;24.160;2023-04-01T18:30:56;98469.75;;;13.11;82.70
26531;BME280;14201;43.188;24.160;2023-04-01T18:33:41;98465.34;;;13.07;80.52
26531;BME280;14201;43.188;24.160;2023-04-01T18:42:10;98459.88;;;12.32;83.02
26531;BME280;14201;43.188;24.160;2023-04-01T18:47:44;98471.22;;;12.34;83.70
26531;BME280;14201;43.188;24.160;2023-04-01T18:53:34;98457.88;;;12.17;83.13
26531;BME280;14201;43.188;24.160;2023-04-01T18:56:10;98471.03;;;12.23;81.93
26531;BME280;14201;43.188;24.160;2023-04-01T19:01:28;98473.00;;;11.88;82.99
26531;BME280;14201;43.188;24.160;2023-04-01T19:04:07;98478.69;;;12.11;83.10
26531;BME280;14201;43.188;24.160;2023-04-01T19:06:47;98482.34;;;12.22;82.47
26531;BME280;14201;43.188;24.160;2023-04-01T19:09:24;98475.38;;;12.23;81.42
26531;BME280;14201;43.188;24.160;2023-04-01T19:17:21;98490.88;;;12.13;79.15
26531;BME280;14201;43.188;24.160;2023-04-01T19:25:58;98493.41;;;12.07;79.46
26531;BME280;14201;43.188;24.160;2023-04-01T19:36:50;98502.72;;;11.93;82.17
26531;BME280;14201;43.188;24.160;2023-04-01T19:42:15;98508.91;;;11.99;82.38
26531;BME280;14201;43.188;24.160;2023-04-01T19:47:57;98510.38;;;11.85;83.96
26531;BME280;14201;43.188;24.160;2023-04-01T19:51:09;98506.50;;;11.22;87.79
26531;BME280;14201;43.188;24.160;2023-04-01T19:58:53;98528.53;;;11.79;85.48
26531;BME280;14201;43.188;24.160;2023-04-01T20:01:27;98522.28;;;11.72;85.21
26531;BME280;14201;43.188;24.160;2023-04-01T20:04:17;98523.41;;;11.85;86.26
26531;BME280;14201;43.188;24.160;2023-04-01T20:06:54;98535.44;;;11.78;86.29
26531;BME280;14201;43.188;24.160;2023-04-01T20:15:21;98541.31;;;11.65;86.94
26531;BME280;14201;43.188;24.160;2023-04-01T20:17:48;98538.53;;;11.59;86.73
26531;BME280;14201;43.188;24.160;2023-04-01T20:20:24;98544.97;;;11.75;84.63
26531;BME280;14201;43.188;24.160;2023-04-01T20:23:05;98545.75;;;11.30;87.03
26531;BME280;14201;43.188;24.160;2023-04-01T20:25:43;98537.03;;;11.28;87.90
26531;BME280;14201;43.188;24.160;2023-04-01T20:50:27;98583.03;;;11.65;86.99
26531;BME280;14201;43.188;24.160;2023-04-01T20:55:53;98598.75;;;11.70;86.69
26531;BME280;14201;43.188;24.160;2023-04-01T21:01:39;98595.75;;;11.50;87.68
26531;BME280;14201;43.188;24.160;2023-04-01T21:16:03;98593.09;;;10.39;92.12
26531;BME280;14201;43.188;24.160;2023-04-01T21:29:29;98601.34;;;10.91;90.52
26531;BME280;14201;43.188;24.160;2023-04-01T21:46:41;98592.00;;;10.62;84.70
26531;BME280;14201;43.188;24.160;2023-04-01T21:48:52;98590.75;;;10.48;85.96
26531;BME280;14201;43.188;24.160;2023-04-01T21:51:56;98592.22;;;10.38;86.61
26531;BME280;14201;43.188;24.160;2023-04-01T21:57:23;98604.94;;;10.28;88.29
26531;BME280;14201;43.188;24.160;2023-04-01T22:14:38;98570.94;;;10.53;84.43
26531;BME280;14201;43.188;24.160;2023-04-01T22:17:00;98590.09;;;10.25;85.53
26531;BME280;14201;43.188;24.160;2023-04-01T22:19:55;98583.75;;;10.46;84.58
26531;BME280;14201;43.188;24.160;2023-04-01T22:28:26;98591.06;;;10.29;83.24
26531;BME280;14201;43.188;24.160;2023-04-01T22:30:59;98595.91;;;10.47;83.14
26531;BME280;14201;43.188;24.160;2023-04-01T22:33:31;98594.75;;;10.69;81.68
26531;BME280;14201;43.188;24.160;2023-04-01T22:43:54;98604.91;;;10.94;81.50
26531;BME280;14201;43.188;24.160;2023-04-01T22:46:46;98610.19;;;10.97;80.56